Terminal Aerodrome Forecast
Issued by NWS

Home | Current Version | Previous Version | Text Only | Print | Product List | Glossary On
Versions: 1 2 3 4 5 6 7 8 9 10 11 12 13 14 15 16 17 18
000
FTUS44 KLZK 291100
TAFADF
TAF
KADF 291138Z 2912/3012 00000KT P6SM SCT050
     FM291600 19007KT P6SM FEW050 FEW100
     FM292300 17004KT P6SM VCTS SCT050CB BKN100
     FM300600 VRB02KT P6SM FEW100=

USA.gov is the U.S. government's official web portal to all federal, state and local government web resources and services.